Weather observations for the past three days for
Henderson-Oxford Airport
Imperial (Metric)
Date Time (edt) Wind (mph) Vis. (mi.) Weather Sky Cond. Temperature (ºF) Relative Humidity Wind Chill (°F) Heat Index (°F) Pressure Precipitation (in)
Air Dwpt 6 hour altimeter (in) sea level (mb) 1 hr 3 hr 6 hr
Max. Min.
04 16:15 SW 8 G 20 10.00 Fair CLR 75.9 37.8 25% 77 29.94 0.0
04 15:55 SW 13 G 17 10.00 Fair CLR 75.4 37.4 25% 77 29.94 0.0
04 15:35 SW 8 10.00 Fair CLR 75.4 36.9 25% 77 29.94 0.0
04 15:10 W 12 G 18 10.00 Fair CLR 74.5 35.4 24% 29.95 0.0
04 14:55 SW 14 G 17 10.00 Fair CLR 74.5 35.6 24% 29.96 0.0
04 14:35 W 9 10.00 Fair CLR 74.3 34.9 24% 29.96 0.0
04 14:15 SW 15 G 20 10.00 Fair CLR 73.6 34 23% 29.96 0.0
04 13:55 SW 10 10.00 Fair CLR 73.4 34.5 74.1 48.7 24% 29.97 0.0
04 13:35 SW 5 10.00 Fair CLR 72.7 34.2 24% 29.97 0.0
04 13:15 SW 5 10.00 Fair CLR 72.9 35.6 26% 29.98 0.0
04 12:55 SW 12 G 17 10.00 Fair CLR 71.6 34.2 25% 29.99 0.0
04 12:35 SW 3 10.00 Fair CLR 70.3 36 28% 30 0.0
04 12:15 SW 7 10.00 Fair CLR 70.3 36.7 29% 30.01 0.0
04 11:55 SW 7 G 18 10.00 Fair CLR 70 35.8 29% 30.01 0.0
04 11:35 W 7 10.00 Fair CLR 69.1 36.1 30% 30.02 0.0
04 11:15 SW 6 10.00 Fair CLR 68.2 37.8 33% 30.02 0.0
04 10:55 W 6 10.00 Fair CLR 67.1 39 36% 30.02 0.0
04 10:35 W 7 10.00 Fair CLR 65.7 39.2 38% 30.02 0.0
04 10:15 SW 9 10.00 Fair CLR 65.3 39.6 39% 30.02 0.0
04 09:55 SW 8 10.00 Fair CLR 63.7 40.1 42% 30.03 0.0
04 09:35 SW 7 10.00 Fair CLR 61 41.4 49% 30.03 0.0
04 09:15 SW 6 10.00 Fair CLR 58.3 41 53% 30.03 0.0
04 08:55 SW 7 10.00 Fair CLR 56.1 40.8 57% 30.02 0.0
04 08:35 SW 7 10.00 Fair CLR 53.2 39.9 61% 30.04 0.0
04 08:15 SW 7 10.00 Fair CLR 50.5 38.5 63% 30.04 0.0
04 07:55 SW 6 10.00 Fair CLR 48.4 38.3 48.4 37.2 68% 46 30.04 0.0
04 07:35 SW 6 10.00 Fair CLR 45.3 37.8 75% 43 30.04 0.0
04 07:15 SW 6 10.00 Fair CLR 42.8 36.5 79% 40 30.05 0.0
04 06:55 SW 6 10.00 Fair CLR 41.5 35.8 80% 38 30.05 0.0
04 06:35 SW 6 10.00 Fair CLR 38.3 34.5 86% 34 30.04 0.0
04 06:15 SW 3 10.00 Fair CLR 38.3 33.3 82% 30.04 0.0
04 05:55 SW 3 10.00 Fair CLR 40.5 34.2 78% 30.04 0.0
04 05:15 SW 3 10.00 Fair CLR 40.3 33.6 77% 30.03 0.0
04 04:55 SW 5 10.00 Fair CLR 40.6 33.3 75% 38 30.04 0.0
04 04:35 SW 5 10.00 Fair CLR 40.6 32.9 74% 38 30.03 0.0
04 04:15 SW 5 10.00 Fair CLR 41.5 32.4 70% 39 30.03 0.0
04 03:55 SW 3 10.00 Fair CLR 41.5 32.7 71% 30.03 0.0
04 03:35 SW 5 10.00 Fair CLR 41 32.2 71% 38 30.03 0.0
04 03:15 S 5 10.00 Fair CLR 41.7 32.5 70% 39 30.03 0.0
04 02:55 S 5 10.00 Fair CLR 42.4 32.4 68% 40 30.04 0.0
04 02:35 S 6 10.00 Fair CLR 43.3 32.2 65% 40 30.04 0.0
04 02:15 S 5 10.00 Fair CLR 43.9 32.2 64% 42 30.04 0.0
04 01:55 S 5 10.00 Fair CLR 44.1 32 55.8 43.5 63% 42 30.04 0.0
04 01:35 S 5 10.00 Fair CLR 45.5 32 59% 44 30.04 0.0
04 01:15 S 5 10.00 Fair CLR 45.5 31.8 59% 44 30.04 0.0
04 00:55 S 5 10.00 Fair CLR 45.9 31.8 58% 44 30.04 0.0
04 00:35 S 6 10.00 Fair CLR 45.9 31.8 58% 43 30.04 0.0
04 00:15 S 5 10.00 Fair CLR 45.3 32 60% 43 30.04 0.0
03 23:55 S 6 10.00 Fair CLR 46.2 31.6 57% 44 30.04 0.0
03 23:35 S 5 10.00 Fair CLR 43.7 33.1 66% 42 30.04 0.0
03 23:15 S 3 10.00 Fair CLR 43.9 32.7 65% 30.04 0.0
03 22:55 S 3 10.00 Fair CLR 45.1 32.4 61% 30.04 0.0
03 22:35 Calm 10.00 Fair CLR 46.8 32.2 57% 30.04 0.0
03 22:15 Calm 10.00 Fair CLR 46.4 32.9 59% 30.03 0.0
03 21:55 Calm 10.00 Fair CLR 46.9 33.6 60% 30.04 0.0
03 21:35 Calm 10.00 Fair CLR 48.7 32 53% 30.03 0.0
03 21:15 Calm 10.00 Fair CLR 49.8 32.9 52% 30.03 0.0
03 20:55 Calm 10.00 Fair CLR 50.7 31.5 48% 30.02 0.0
03 20:35 Calm 10.00 Fair CLR 50.7 33.6 52% 30.02 0.0
03 20:15 Calm 10.00 Fair CLR 53.1 32 45% 30.01 0.0
03 19:55 Calm 10.00 Fair CLR 56.1 29.1 61.9 56.1 36% 30 0.0
03 19:35 SW 3 10.00 Fair CLR 58.3 25.7 29% 30 0.0
03 19:15 W 3 10.00 Fair CLR 59.2 26.4 29% 30 0.0
03 18:55 SW 3 10.00 Fair CLR 60.3 25.5 26% 30.01 0.0
03 18:35 W 7 10.00 Fair CLR 61 25.2 25% 30.01 0.0
03 18:15 NW 3 10.00 Fair CLR 61 24.8 25% 30.01 0.0
03 17:55 W 5 10.00 Fair CLR 61.3 24.1 24% 30.01 0.0
03 17:35 W 5 10.00 Fair CLR 61.7 26.4 26% 30.02 0.0
03 17:15 SW 6 10.00 Fair CLR 61.9 25.3 25% 30.02 0.0
03 16:55 NW 7 10.00 Fair CLR 61.7 25.2 25% 30.02 0.0
03 16:35 W 6 10.00 Fair CLR 61 24.4 25% 30.02 0.0
03 16:15 W 9 10.00 Fair CLR 60.4 25.3 26% 30.03 0.0
03 15:55 W 8 10.00 Fair CLR 60.6 25.5 26% 30.03 0.0
03 15:35 Calm 10.00 Fair CLR 60.4 24.6 25% 30.04 0.0
03 15:15 W 6 10.00 Fair CLR 59.2 24.4 26% 30.05 0.0
03 14:35 SW 7 10.00 Fair CLR 57.7 24.4 28% 30.06 0.0
03 14:15 NW 9 10.00 Fair CLR 58.5 24.6 27% 30.07 0.0
03 13:55 NW 6 10.00 Fair CLR 57.6 23 57.9 44.1 26% 30.07 0.0
03 13:35 SW 3 10.00 Fair CLR 56.8 23 27% 30.08 0.0
03 13:15 NW 6 G 18 10.00 Fair CLR 56.5 24.4 29% 30.08 0.0
03 12:55 SW 8 10.00 Fair CLR 55.8 25.5 31% 30.09 0.0
03 12:35 NW 6 10.00 Fair CLR 54.1 23.9 31% 30.1 0.0
03 12:15 N 8 10.00 Fair CLR 54 24.1 31% 30.11 0.0
03 11:55 N 8 G 17 10.00 Fair CLR 54 24.1 31% 30.11 0.0
03 11:35 NW 9 10.00 Fair CLR 53.2 22.8 31% 30.11 0.0
03 11:15 W 5 G 21 10.00 Fair CLR 52.7 24.8 34% 30.11 0.0
03 10:55 W 5 G 20 10.00 Fair CLR 52.2 25.5 36% 30.11 0.0
03 10:35 NW 3 G 18 10.00 Fair CLR 51.3 24.3 35% 30.1 0.0
03 10:15 NW 8 G 16 10.00 Fair CLR 51.3 23.4 34% 30.1 0.0
03 09:55 NW 13 G 20 10.00 Fair CLR 50.9 23.7 35% 30.1 0.0
03 09:35 NW 10 G 16 10.00 Fair CLR 50 25.7 39% 46 30.1 0.0
03 09:15 NW 12 G 17 10.00 Fair CLR 49.3 27.3 43% 45 30.1 0.0
03 08:35 NW 8 10.00 Fair CLR 47.1 29.3 50% 44 30.1 0.0
03 08:15 NW 8 10.00 Fair CLR 45.5 30.2 55% 42 30.09 0.0
03 07:55 NW 6 10.00 Fair CLR 43.9 30 43.9 40.5 58% 41 30.09 0.0
03 07:35 W 6 10.00 Fair CLR 43.2 30 60% 40 30.08 0.0
03 07:15 NW 3 10.00 Fair CLR 41.9 29.8 62% 30.07 0.0
03 06:50 W 5 10.00 Fair CLR 40.8 29.1 63% 38 30.05 0.0
03 06:35 NW 3 10.00 Fair CLR 40.6 28.9 63% 30.04 0.0
03 06:15 W 5 10.00 Fair CLR 40.6 28.9 63% 38 30.04 0.0
03 05:55 W 3 10.00 Fair CLR 41 28.6 61% 30.03 0.0
03 05:35 NW 5 10.00 Fair CLR 41.9 28.4 59% 40 30.02 0.0
03 05:15 NW 6 10.00 Fair CLR 41.7 28.4 59% 38 30.01 0.0
03 04:55 NW 6 10.00 Fair CLR 41.5 28.8 61% 38 30.01 0.0
03 04:35 NW 3 10.00 Fair CLR 41.5 28.9 61% 30 0.0
03 04:15 NW 6 10.00 Fair CLR 41.9 28.8 60% 39 30 0.0
03 03:55 NW 8 10.00 Fair CLR 42.1 28.9 60% 38 29.99 0.0
03 03:35 NW 7 10.00 Fair CLR 42.1 28.9 60% 38 29.98 0.0
03 03:15 NW 5 10.00 Fair CLR 42.1 28.9 60% 40 29.97 0.0
03 02:55 W 5 10.00 Fair CLR 42.8 28.9 58% 41 29.97 0.0
03 02:35 NW 5 10.00 Fair CLR 43.2 29.1 58% 41 29.97 0.0
03 02:15 NW 7 10.00 Fair CLR 43.7 29.3 57% 40 29.97 0.0
03 01:55 W 5 10.00 Fair CLR 43.7 30.2 50.9 41.7 59% 42 29.97 0.0
03 01:35 W 5 10.00 Fair CLR 43.7 30.6 60% 42 29.97 0.0
03 01:15 W 3 10.00 Fair CLR 43.7 31.1 61% 29.96 0.0
03 00:55 W 3 10.00 Fair CLR 43.7 32 64% 29.96 0.0
03 00:15 Calm 10.00 Fair CLR 45 34 66% 29.96 0.0
02 23:55 NW 5 10.00 Fair CLR 45.3 35.1 67% 43 29.96 0.0
02 23:35 W 5 10.00 Fair CLR 42.1 39.6 91% 40 29.96 0.0
02 23:15 W 3 10.00 Fair CLR 43.9 42.6 95% 29.95 0.0
02 22:55 Calm 10.00 Fair CLR 43 42.1 97% 29.95 0.0
02 22:35 Calm 10.00 Fair CLR 44.1 42.4 94% 29.95 0.0
02 22:15 Calm 10.00 Fair CLR 45.3 42.1 88% 29.95 0.0
02 21:55 SW 3 10.00 Fair CLR 46.4 41 82% 29.94 0.0
02 21:35 Calm 10.00 Fair CLR 46.6 42.1 84% 29.94 0.0
02 21:15 Calm 10.00 Fair CLR 46.6 41.4 82% 29.93 0.0
02 20:55 Calm 10.00 Fair CLR 47.7 41.2 78% 29.93 0.0
02 20:35 Calm 10.00 Fair CLR 48.4 41.9 78% 29.92 0.0
02 20:15 Calm 10.00 Fair CLR 49.8 41.2 72% 29.91 0.0
02 19:35 Calm 10.00 Fair CLR 51.4 40.1 65% 29.89 0.0
02 19:15 NE 5 10.00 Fair CLR 52.5 38.7 59% 29.89 0.0
02 18:55 E 7 10.00 Partly Cloudy SCT090 54.3 39.2 57% 29.89 0.0
02 18:35 NE 3 10.00 Fair CLR 54 39.4 58% 29.88 0.0
02 18:15 N 3 10.00 Fair CLR 54 39 57% 29.89 0.0
02 17:55 Calm 10.00 Fair CLR 54.1 39.4 58% 29.88 0.0
02 17:35 N 3 10.00 Fair CLR 54.1 39.4 58% 29.88 0.0
02 17:15 NW 6 10.00 Partly Cloudy SCT037 SCT050 SCT070 54.3 39 56% 29.89 0.0
02 16:35 N 6 10.00 Partly Cloudy SCT041 SCT046 54.9 38.3 54% 29.88 0.0
02 16:15 N 5 10.00 Mostly Cloudy BKN041 BKN046 55.2 37.8 52% 29.88 0.0
02 15:55 Calm 10.00 Mostly Cloudy BKN039 BKN045 54.7 37 52% 29.89 0.0
02 15:35 Calm 10.00 Partly Cloudy SCT039 SCT046 54.9 37.8 53% 29.89 0.0
02 15:15 NE 6 10.00 Partly Cloudy SCT039 SCT046 55.6 38.3 52% 29.89 0.0
02 14:35 NE 7 10.00 Partly Cloudy SCT035 SCT045 55.2 38.1 53% 29.91 0.0
02 14:15 NE 7 10.00 Partly Cloudy SCT037 55 39.2 55% 29.91 0.0
02 13:55 N 5 10.00 Partly Cloudy SCT030 SCT039 55.4 40.1 55.4 49.6 57% 29.91 0.0
02 13:35 N 7 10.00 Mostly Cloudy BKN028 BKN036 53.6 41.9 65% 29.91 0.0
02 13:15 N 7 10.00 Partly Cloudy SCT028 SCT034 SCT041 54.5 42.1 63% 29.92 0.0
02 12:55 N 6 10.00 Fair CLR 53.4 41.9 65% 29.92 0.0
02 12:35 N 7 10.00 Partly Cloudy SCT029 53.2 41 63% 29.95 0.0
02 12:15 NE 7 10.00 Fair CLR 53.1 41 64% 29.95 0.0
02 11:55 NE 7 10.00 Fair CLR 52.7 40.6 64% 29.95 0.0
02 11:35 NE 7 10.00 Fair CLR 53.2 41 63% 29.94 0.0
02 11:15 NE 5 10.00 Fair CLR 53.1 41.2 64% 29.94 0.0
02 10:55 NE 7 10.00 Fair CLR 53.1 41 64% 29.95 0.0
02 10:35 NE 6 10.00 Fair CLR 53.1 42.1 66% 29.94 0.0
02 10:15 NE 7 10.00 Light Rain CLR 52.3 43 71% 29.94 0.0
02 09:55 NE 5 10.00 Light Drizzle CLR 51.8 43.5 74% 29.94 0.0
02 09:35 NE 5 10.00 Partly Cloudy SCT070 51.8 43.9 75% 29.93 0.0
02 08:55 N 5 10.00 Partly Cloudy SCT070 50.9 43.9 77% 29.93 0.0
02 08:35 N 3 10.00 Mostly Cloudy BKN070 50.4 43.9 79% 29.92 0.0
02 08:15 N 3 10.00 Partly Cloudy SCT070 50 43.9 80% 29.92 0.0
02 07:55 N 5 10.00 Fair CLR 49.6 43.7 50.5 47.3 80% 48 29.92 0.0
02 07:35 N 5 10.00 Fair CLR 49.1 43.7 82% 48 29.92 0.0
02 07:15 N 3 10.00 Fair CLR 49.5 43 78% 29.93 0.0
02 06:55 Calm 10.00 Fair CLR 50 42.8 76% 29.93 0.0
02 06:35 N 5 10.00 Fair CLR 50 42.6 76% 49 29.92 0.0
02 06:15 NW 5 10.00 Fair CLR 50.2 42.4 75% 29.93 0.0
02 05:55 NW 5 10.00 Fair CLR 50.5 42.8 75% 29.92 0.0
02 05:35 NW 6 10.00 Fair CLR 50 43.7 79% 48 29.91 0.0
02 05:15 Calm 10.00 Fair CLR 48.7 45.5 89% 29.91 0.0
02 04:55 W 3 10.00 Fair CLR 48.4 45.9 91% 29.9 0.0
02 04:35 SW 3 10.00 Fair CLR 48.2 45.9 92% 29.89 0.0
02 04:15 SW 3 10.00 Fair CLR 48.4 45.7 90% 29.89 0.0
02 03:55 SW 5 10.00 Fair CLR 48.2 45.7 91% 47 29.89 0.0
02 03:35 SW 3 10.00 Fair CLR 47.7 45.7 93% 29.89 0.0
02 03:15 Calm 10.00 Fair CLR 47.8 45.7 92% 29.89 0.0
02 02:55 Calm 10.00 Fair CLR 47.5 45.9 94% 29.89 0.0
02 02:35 W 3 10.00 Fair CLR 47.7 45.5 92% 29.9 0.0
02 02:15 Calm 10.00 Fair CLR 47.5 45.9 94% 29.91 0.0
02 01:55 Calm 10.00 Fair CLR 47.3 46 52.7 47.3 95% 29.9 0.0
02 01:35 Calm 10.00 Fair CLR 48 45.5 91% 29.9 0.0
02 01:15 Calm 10.00 Fair CLR 47.7 45.3 92% 29.91 0.0
02 00:55 Calm 10.00 Fair CLR 47.5 45.3 92% 29.92 0.0
02 00:35 Calm 10.00 Fair CLR 47.7 45 90% 29.92 0.0
02 00:15 Calm 10.00 Fair CLR 47.5 44.6 90% 29.92 0.0
01 23:55 SW 3 10.00 Fair CLR 47.5 44.4 89% 29.93 0.0
01 23:35 S 3 10.00 Fair CLR 48.2 44.4 87% 29.92 0.0
01 23:15 S 5 10.00 Fair CLR 48.6 44.1 85% 47 29.92 0.0
01 22:55 S 6 10.00 Partly Cloudy SCT001 48.7 43.9 83% 47 29.92 0.0
01 22:35 S 6 10.00 Partly Cloudy SCT001 49.1 43.7 82% 47 29.92 0.0
01 22:15 S 6 10.00 Fair CLR 49.1 43.3 81% 47 29.92 0.0
01 21:55 S 7 10.00 Fair CLR 49.5 43.5 80% 47 29.92 0.0
01 21:35 S 6 10.00 Fair CLR 49.5 43.5 80% 48 29.92 0.0
01 21:15 S 6 10.00 Fair CLR 50 43.3 78% 48 29.92 0.0
01 20:55 S 5 10.00 Fair CLR 50.2 43.3 77% 29.91 0.0
01 20:35 S 5 10.00 Fair CLR 50.9 43 74% 29.91 0.0
01 20:15 S 6 10.00 Fair CLR 51.4 42.8 72% 29.89 0.0
01 19:55 S 7 10.00 Fair CLR 52.7 42.3 65.5 52.7 68% 29.9 0.0
01 19:35 S 7 10.00 Fair CLR 54.1 42.1 64% 29.9 0.0
01 19:15 S 7 10.00 Fair CLR 55.9 41.7 59% 29.9 0.0
01 18:55 S 14 10.00 Fair CLR 57.2 40.8 55% 29.89 0.0
01 18:35 S 12 G 17 10.00 Fair CLR 58.8 41 52% 29.9 0.0
01 18:15 S 12 10.00 Fair CLR 59.7 40.5 49% 29.9 0.0
01 17:55 S 10 G 18 10.00 Fair CLR 63.1 39.4 42% 29.9 0.0
01 17:35 S 8 10.00 Fair CLR 63 39.2 42% 29.9 0.0
01 17:15 S 8 10.00 Fair CLR 63.7 38.8 40% 29.9 0.0
01 16:55 S 9 10.00 Fair CLR 64.2 39.4 40% 29.9 0.0
01 16:35 S 5 10.00 Fair CLR 63.9 38.7 40% 29.9 0.0
Date Time (edt) Wind (mph) Vis. (mi.) Weather Sky Cond. Air Dwpt Max. Min. Relative Humidity Wind Chill (°F) Heat Index (°F) altimeter (in) sea level (mb) 1 hr 3 hr 6 hr
6 hour
Temperature (ºF) Pressure Precipitation (in)